SBRFSBAR

Guest
Details From SBRF - Recife Intl
To SBAR - SANTA MARIA
Flight Number -
Tags generated
Created
Modified
Stats Distance 214 nm / 395 km
Max Altitude 24,500 ft / 7,468 m
Waypoints 4
Social Downloads 3
Likes 0
Share VATSIM

Download

Looking for another format? Having issues loading an existing format? Contact us
Advertisement - Login to hide

Notes

Basic altitude profile: - Ascent Rate: 2000ft/min - Ascent Speed: 250kts - Cruise Altitude: 220ft - Cruise Speed: 350kts - Descent Rate: 2000ft/min - Descent Speed: 250kts

Route

SBRF POTRO UW58 ORAGO SBAR

ID Type Via Altitude Latitude Longitude Leg Dist Tot Dist Heading (true) Name
O SBRF APT - 0 ft / 0 m -8.12790˚ -34.92298˚ - 0 nm - Recife Intl
POTRO FIX - 200 ft / 61 m -8.80833˚ -35.42917˚ 50 nm 50 nm 216° / 216° -
ORAGO FIX UW58 (AWY-HI) 24,500 ft / 7,468 m -10.31467˚ -36.56317˚ 112 nm 163 nm 216° / 217° -
O SBAR APT - 0 ft / 0 m -10.98400˚ -37.07033˚ 50 nm 213 nm 217° / 217° SANTA MARIA

Altitude Profile

Advertisement - Login to hide

Weather


0- 5 10 15 20 25 30 35+ Temperature / ° C

Clouds and Precipitation
Forecast for 2017-12-11 12:00 UTC. Updated 34 minutes ago

Ground ~20,000 ft ~40,000 ft Winds

SBRF

Details ICAO SBRF (REC)
Name Recife Intl
Region Brazil
Timezone America/Recife (UTC-3.0)
Stats Elevation 33 ft / 10 m (AMSL)
Location -8.127896° -34.922981°
Runways 2
Magnetic Variation 22.088° W

METAR

SBRF 110700Z 32004KT 9999 SCT020 24/23 Q1010

Decode

TAF

TAF SBRF 110300Z 1106/1206 01005KT 9000 SCT020 TN25/1108Z TX30/1115Z BECMG 1110/1112 04011KT 8000 BKN018 BECMG 1115/1116 07012KT SCT020 RMK PEU

Decode

Departure Runways

ID Width Length Bearing (true) Bearing (mag) Surface Threshold Offset Overrun Length
01 98 ft / 30 m 4,979 ft / 1,518 m 304.20° 326.29° Asphalt 300 ft / 91 m 0 ft / 0 m
18 148 ft / 45 m 9,915 ft / 3,022 m 161.91° 184.00° Asphalt 1,225 ft / 373 m 0 ft / 0 m
19 98 ft / 30 m 4,979 ft / 1,518 m 124.20° 146.29° Asphalt 300 ft / 91 m 0 ft / 0 m
36 148 ft / 45 m 9,915 ft / 3,022 m 341.91° 4.00° Asphalt 0 ft / 0 m 350 ft / 107 m

SBAR

Details ICAO SBAR (AJU)
Name SANTA MARIA
Region Brazil
Timezone America/Maceio (UTC-3.0)
Stats Elevation 23 ft / 7 m (AMSL)
Location -10.984000° -37.070333°
Runways 1
Magnetic Variation 23.050° W

METAR

SBAR 110700Z 10004KT 9999 SCT016 24/22 Q1009

Decode

TAF

TAF SBAR 110300Z 1106/1118 36005KT 7000 SCT015 SCT030 TN23/1107Z TX28/1115Z BECMG 1108/1110 02006KT TEMPO 1109/1111 BKN012 BECMG 1113/1114 07009KT PROB40 TEMPO 1115/1117 5000 RA BKN015 FEW025TCU RMK PEU

Decode

Destination Runways

ID Width Length Bearing (true) Bearing (mag) Surface Threshold Offset Overrun Length
11 148 ft / 45 m 7,228 ft / 2,203 m 91.93° 114.98° Asphalt 0 ft / 0 m 200 ft / 61 m
29 148 ft / 45 m 7,228 ft / 2,203 m 271.92° 294.97° Asphalt 0 ft / 0 m 200 ft / 61 m

Popular Alternatives